sensor_id;sensor_type;location;lat;lon;timestamp;P1;durP1;ratioP1;P2;durP2;ratioP2
61356;SDS011;47227;46.752;23.576;2023-05-16T00:01:30;14.70;;;6.70;;
61356;SDS011;47227;46.752;23.576;2023-05-16T00:03:58;9.30;;;6.40;;
61356;SDS011;47227;46.752;23.576;2023-05-16T00:06:26;13.00;;;7.40;;
61356;SDS011;47227;46.752;23.576;2023-05-16T00:08:54;9.90;;;6.70;;
61356;SDS011;47227;46.752;23.576;2023-05-16T00:11:22;11.60;;;5.40;;
61356;SDS011;47227;46.752;23.576;2023-05-16T00:13:50;13.50;;;5.60;;
61356;SDS011;47227;46.752;23.576;2023-05-16T00:16:18;17.40;;;6.60;;
61356;SDS011;47227;46.752;23.576;2023-05-16T00:18:48;10.10;;;6.30;;
61356;SDS011;47227;46.752;23.576;2023-05-16T00:21:16;13.70;;;5.90;;
61356;SDS011;47227;46.752;23.576;2023-05-16T00:23:44;9.10;;;5.10;;
61356;SDS011;47227;46.752;23.576;2023-05-16T00:26:12;12.80;;;4.80;;
61356;SDS011;47227;46.752;23.576;2023-05-16T00:28:41;12.90;;;5.70;;
61356;SDS011;47227;46.752;23.576;2023-05-16T00:31:39;8.00;;;4.80;;
61356;SDS011;47227;46.752;23.576;2023-05-16T00:34:42;11.40;;;4.90;;
61356;SDS011;47227;46.752;23.576;2023-05-16T00:38:30;9.90;;;5.00;;
61356;SDS011;47227;46.752;23.576;2023-05-16T00:41:13;11.50;;;5.00;;
61356;SDS011;47227;46.752;23.576;2023-05-16T00:43:41;13.00;;;5.80;;
61356;SDS011;47227;46.752;23.576;2023-05-16T00:46:09;9.60;;;5.20;;
61356;SDS011;47227;46.752;23.576;2023-05-16T00:48:37;11.40;;;5.30;;
61356;SDS011;47227;46.752;23.576;2023-05-16T00:51:06;10.10;;;5.60;;
61356;SDS011;47227;46.752;23.576;2023-05-16T00:53:36;13.00;;;6.10;;
61356;SDS011;47227;46.752;23.576;2023-05-16T00:56:04;13.70;;;6.10;;
61356;SDS011;47227;46.752;23.576;2023-05-16T00:58:33;9.90;;;6.30;;
61356;SDS011;47227;46.752;23.576;2023-05-16T01:01:01;12.80;;;5.80;;
61356;SDS011;47227;46.752;23.576;2023-05-16T01:03:31;13.10;;;5.70;;
61356;SDS011;47227;46.752;23.576;2023-05-16T01:06:00;15.10;;;6.00;;
61356;SDS011;47227;46.752;23.576;2023-05-16T01:08:27;13.70;;;5.30;;
61356;SDS011;47227;46.752;23.576;2023-05-16T01:10:58;12.90;;;5.40;;
61356;SDS011;47227;46.752;23.576;2023-05-16T01:13:40;12.00;;;4.30;;
61356;SDS011;47227;46.752;23.576;2023-05-16T01:16:21;8.00;;;4.50;;
61356;SDS011;47227;46.752;23.576;2023-05-16T01:19:06;11.40;;;4.50;;
61356;SDS011;47227;46.752;23.576;2023-05-16T01:21:53;10.70;;;4.80;;
61356;SDS011;47227;46.752;23.576;2023-05-16T01:24:32;12.30;;;4.60;;
61356;SDS011;47227;46.752;23.576;2023-05-16T01:27:07;9.30;;;4.30;;
61356;SDS011;47227;46.752;23.576;2023-05-16T01:29:38;10.40;;;4.50;;
61356;SDS011;47227;46.752;23.576;2023-05-16T01:32:05;9.60;;;4.50;;
61356;SDS011;47227;46.752;23.576;2023-05-16T01:34:34;11.60;;;4.50;;
61356;SDS011;47227;46.752;23.576;2023-05-16T01:40:03;14.50;;;5.60;;
61356;SDS011;47227;46.752;23.576;2023-05-16T01:42:38;8.10;;;5.10;;
61356;SDS011;47227;46.752;23.576;2023-05-16T01:45:12;11.30;;;4.70;;
61356;SDS011;47227;46.752;23.576;2023-05-16T01:47:51;10.80;;;4.60;;
61356;SDS011;47227;46.752;23.576;2023-05-16T01:50:29;14.60;;;5.90;;
61356;SDS011;47227;46.752;23.576;2023-05-16T01:53:05;10.80;;;4.90;;
61356;SDS011;47227;46.752;23.576;2023-05-16T01:55:41;9.30;;;5.00;;
61356;SDS011;47227;46.752;23.576;2023-05-16T01:58:13;9.70;;;5.50;;
61356;SDS011;47227;46.752;23.576;2023-05-16T02:00:43;13.40;;;5.30;;
61356;SDS011;47227;46.752;23.576;2023-05-16T02:03:11;11.10;;;5.40;;
61356;SDS011;47227;46.752;23.576;2023-05-16T02:05:39;11.10;;;5.30;;
61356;SDS011;47227;46.752;23.576;2023-05-16T02:08:10;9.40;;;5.20;;
61356;SDS011;47227;46.752;23.576;2023-05-16T02:10:38;13.40;;;5.70;;
61356;SDS011;47227;46.752;23.576;2023-05-16T02:13:08;14.50;;;4.90;;
61356;SDS011;47227;46.752;23.576;2023-05-16T02:15:36;10.90;;;4.40;;
61356;SDS011;47227;46.752;23.576;2023-05-16T02:18:04;15.30;;;4.40;;
61356;SDS011;47227;46.752;23.576;2023-05-16T02:20:32;13.10;;;4.60;;
61356;SDS011;47227;46.752;23.576;2023-05-16T02:23:01;13.50;;;4.60;;
61356;SDS011;47227;46.752;23.576;2023-05-16T02:25:33;10.90;;;4.70;;
61356;SDS011;47227;46.752;23.576;2023-05-16T02:28:01;11.90;;;5.00;;
61356;SDS011;47227;46.752;23.576;2023-05-16T02:30:28;13.20;;;5.30;;
61356;SDS011;47227;46.752;23.576;2023-05-16T02:32:56;7.90;;;4.40;;
61356;SDS011;47227;46.752;23.576;2023-05-16T02:35:24;13.60;;;4.70;;
61356;SDS011;47227;46.752;23.576;2023-05-16T02:37:53;6.40;;;4.50;;
61356;SDS011;47227;46.752;23.576;2023-05-16T02:40:24;7.30;;;4.40;;
61356;SDS011;47227;46.752;23.576;2023-05-16T02:42:52;10.70;;;4.50;;
61356;SDS011;47227;46.752;23.576;2023-05-16T02:45:20;10.30;;;4.60;;
61356;SDS011;47227;46.752;23.576;2023-05-16T02:47:48;11.20;;;4.20;;
61356;SDS011;47227;46.752;23.576;2023-05-16T02:50:18;10.50;;;4.40;;
61356;SDS011;47227;46.752;23.576;2023-05-16T02:52:46;7.20;;;4.20;;
61356;SDS011;47227;46.752;23.576;2023-05-16T02:55:14;11.40;;;5.20;;
61356;SDS011;47227;46.752;23.576;2023-05-16T02:57:50;15.10;;;5.50;;
61356;SDS011;47227;46.752;23.576;2023-05-16T03:00:18;16.40;;;5.60;;
61356;SDS011;47227;46.752;23.576;2023-05-16T03:02:47;11.00;;;4.60;;
61356;SDS011;47227;46.752;23.576;2023-05-16T03:05:16;17.10;;;5.80;;
61356;SDS011;47227;46.752;23.576;2023-05-16T03:07:44;11.50;;;5.00;;
61356;SDS011;47227;46.752;23.576;2023-05-16T03:10:13;11.20;;;5.40;;
61356;SDS011;47227;46.752;23.576;2023-05-16T03:12:41;15.80;;;5.60;;
61356;SDS011;47227;46.752;23.576;2023-05-16T03:15:09;12.10;;;5.50;;
61356;SDS011;47227;46.752;23.576;2023-05-16T03:17:37;12.20;;;5.40;;
61356;SDS011;47227;46.752;23.576;2023-05-16T03:20:05;14.20;;;5.60;;
61356;SDS011;47227;46.752;23.576;2023-05-16T03:22:36;12.20;;;5.60;;
61356;SDS011;47227;46.752;23.576;2023-05-16T03:25:04;13.50;;;4.90;;
61356;SDS011;47227;46.752;23.576;2023-05-16T03:27:33;14.70;;;5.60;;
61356;SDS011;47227;46.752;23.576;2023-05-16T03:30:02;15.60;;;5.80;;
61356;SDS011;47227;46.752;23.576;2023-05-16T03:32:30;14.90;;;5.90;;
61356;SDS011;47227;46.752;23.576;2023-05-16T03:35:04;13.60;;;5.00;;
61356;SDS011;47227;46.752;23.576;2023-05-16T03:37:32;13.40;;;5.00;;
61356;SDS011;47227;46.752;23.576;2023-05-16T03:40:00;15.40;;;4.80;;
61356;SDS011;47227;46.752;23.576;2023-05-16T03:42:28;13.10;;;4.60;;
61356;SDS011;47227;46.752;23.576;2023-05-16T03:44:57;14.60;;;4.90;;
61356;SDS011;47227;46.752;23.576;2023-05-16T03:47:25;9.30;;;4.00;;
61356;SDS011;47227;46.752;23.576;2023-05-16T03:49:56;14.50;;;5.20;;
61356;SDS011;47227;46.752;23.576;2023-05-16T03:52:25;9.90;;;4.30;;
61356;SDS011;47227;46.752;23.576;2023-05-16T03:54:52;8.00;;;4.50;;
61356;SDS011;47227;46.752;23.576;2023-05-16T03:57:20;9.00;;;4.10;;
61356;SDS011;47227;46.752;23.576;2023-05-16T03:59:49;13.00;;;4.80;;
61356;SDS011;47227;46.752;23.576;2023-05-16T04:02:16;8.50;;;4.70;;
61356;SDS011;47227;46.752;23.576;2023-05-16T04:04:45;11.20;;;5.60;;
61356;SDS011;47227;46.752;23.576;2023-05-16T04:07:13;17.20;;;5.00;;
61356;SDS011;47227;46.752;23.576;2023-05-16T04:09:41;10.00;;;5.00;;
61356;SDS011;47227;46.752;23.576;2023-05-16T04:12:09;13.20;;;5.60;;
61356;SDS011;47227;46.752;23.576;2023-05-16T04:14:37;18.60;;;6.60;;
61356;SDS011;47227;46.752;23.576;2023-05-16T04:17:05;12.90;;;6.30;;
61356;SDS011;47227;46.752;23.576;2023-05-16T04:19:34;13.40;;;6.70;;
61356;SDS011;47227;46.752;23.576;2023-05-16T04:22:02;21.60;;;6.60;;
61356;SDS011;47227;46.752;23.576;2023-05-16T04:24:30;16.40;;;6.40;;
61356;SDS011;47227;46.752;23.576;2023-05-16T04:26:58;19.80;;;7.90;;
61356;SDS011;47227;46.752;23.576;2023-05-16T04:29:26;17.50;;;7.80;;
61356;SDS011;47227;46.752;23.576;2023-05-16T04:31:54;12.10;;;7.80;;
61356;SDS011;47227;46.752;23.576;2023-05-16T04:34:22;15.20;;;8.20;;
61356;SDS011;47227;46.752;23.576;2023-05-16T04:36:54;15.10;;;6.50;;
61356;SDS011;47227;46.752;23.576;2023-05-16T04:39:22;12.40;;;6.10;;
61356;SDS011;47227;46.752;23.576;2023-05-16T04:41:50;16.30;;;6.60;;
61356;SDS011;47227;46.752;23.576;2023-05-16T04:44:18;13.70;;;5.90;;
61356;SDS011;47227;46.752;23.576;2023-05-16T04:46:46;12.90;;;7.40;;
61356;SDS011;47227;46.752;23.576;2023-05-16T04:49:14;15.60;;;6.60;;
61356;SDS011;47227;46.752;23.576;2023-05-16T04:51:43;15.30;;;6.60;;
61356;SDS011;47227;46.752;23.576;2023-05-16T04:54:11;9.80;;;6.10;;
61356;SDS011;47227;46.752;23.576;2023-05-16T04:56:39;11.90;;;5.60;;
61356;SDS011;47227;46.752;23.576;2023-05-16T04:59:07;7.90;;;6.00;;
61356;SDS011;47227;46.752;23.576;2023-05-16T05:01:35;14.10;;;6.80;;
61356;SDS011;47227;46.752;23.576;2023-05-16T05:04:03;14.20;;;7.20;;
61356;SDS011;47227;46.752;23.576;2023-05-16T05:06:31;34.30;;;15.40;;
61356;SDS011;47227;46.752;23.576;2023-05-16T05:08:59;24.70;;;11.40;;
61356;SDS011;47227;46.752;23.576;2023-05-16T05:11:27;19.60;;;8.80;;
61356;SDS011;47227;46.752;23.576;2023-05-16T05:13:55;18.20;;;9.20;;
61356;SDS011;47227;46.752;23.576;2023-05-16T05:16:23;18.60;;;9.20;;
61356;SDS011;47227;46.752;23.576;2023-05-16T05:18:52;18.00;;;9.30;;
61356;SDS011;47227;46.752;23.576;2023-05-16T05:21:20;16.40;;;9.10;;
61356;SDS011;47227;46.752;23.576;2023-05-16T05:23:51;17.80;;;10.00;;
61356;SDS011;47227;46.752;23.576;2023-05-16T05:26:19;16.20;;;9.60;;
61356;SDS011;47227;46.752;23.576;2023-05-16T05:28:48;17.70;;;9.50;;
61356;SDS011;47227;46.752;23.576;2023-05-16T05:31:30;15.00;;;8.30;;
61356;SDS011;47227;46.752;23.576;2023-05-16T05:34:00;16.60;;;8.90;;
61356;SDS011;47227;46.752;23.576;2023-05-16T05:37:11;21.70;;;7.90;;
61356;SDS011;47227;46.752;23.576;2023-05-16T05:40:38;15.50;;;8.30;;
61356;SDS011;47227;46.752;23.576;2023-05-16T05:44:02;13.80;;;7.40;;
61356;SDS011;47227;46.752;23.576;2023-05-16T05:48:05;15.90;;;8.80;;
61356;SDS011;47227;46.752;23.576;2023-05-16T05:51:51;10.60;;;7.30;;
61356;SDS011;47227;46.752;23.576;2023-05-16T05:55:23;13.20;;;7.90;;
61356;SDS011;47227;46.752;23.576;2023-05-16T05:59:04;17.50;;;7.80;;
61356;SDS011;47227;46.752;23.576;2023-05-16T06:20:30;22.00;;;12.10;;
61356;SDS011;47227;46.752;23.576;2023-05-16T06:24:32;24.00;;;12.60;;
61356;SDS011;47227;46.752;23.576;2023-05-16T06:28:21;24.70;;;13.40;;
61356;SDS011;47227;46.752;23.576;2023-05-16T06:32:11;24.80;;;14.70;;
61356;SDS011;47227;46.752;23.576;2023-05-16T06:35:50;29.10;;;15.50;;
61356;SDS011;47227;46.752;23.576;2023-05-16T06:47:02;22.80;;;13.00;;
61356;SDS011;47227;46.752;23.576;2023-05-16T06:50:08;23.20;;;14.60;;
61356;SDS011;47227;46.752;23.576;2023-05-16T08:00:06;26.30;;;16.00;;
61356;SDS011;47227;46.752;23.576;2023-05-16T08:07:04;19.20;;;12.50;;
61356;SDS011;47227;46.752;23.576;2023-05-16T08:18:19;21.20;;;12.00;;
61356;SDS011;47227;46.752;23.576;2023-05-16T08:29:10;26.90;;;13.10;;
61356;SDS011;47227;46.752;23.576;2023-05-16T08:42:05;19.40;;;11.70;;
61356;SDS011;47227;46.752;23.576;2023-05-16T08:45:16;26.30;;;13.50;;
61356;SDS011;47227;46.752;23.576;2023-05-16T09:02:22;21.90;;;12.10;;
61356;SDS011;47227;46.752;23.576;2023-05-16T09:53:29;25.60;;;10.40;;
61356;SDS011;47227;46.752;23.576;2023-05-16T10:00:36;19.20;;;10.30;;
61356;SDS011;47227;46.752;23.576;2023-05-16T10:07:16;19.10;;;11.00;;
61356;SDS011;47227;46.752;23.576;2023-05-16T10:16:55;18.80;;;11.00;;
61356;SDS011;47227;46.752;23.576;2023-05-16T11:42:47;20.70;;;8.10;;
61356;SDS011;47227;46.752;23.576;2023-05-16T11:50:38;21.20;;;7.30;;
61356;SDS011;47227;46.752;23.576;2023-05-16T11:54:28;19.80;;;6.90;;
61356;SDS011;47227;46.752;23.576;2023-05-16T11:57:57;16.60;;;7.40;;
61356;SDS011;47227;46.752;23.576;2023-05-16T12:00:47;19.90;;;13.30;;
61356;SDS011;47227;46.752;23.576;2023-05-16T12:03:41;18.50;;;7.60;;
61356;SDS011;47227;46.752;23.576;2023-05-16T12:06:23;15.00;;;6.80;;
61356;SDS011;47227;46.752;23.576;2023-05-16T12:11:51;15.80;;;6.70;;
61356;SDS011;47227;46.752;23.576;2023-05-16T12:14:36;23.10;;;7.80;;
61356;SDS011;47227;46.752;23.576;2023-05-16T12:18:05;21.10;;;7.50;;
61356;SDS011;47227;46.752;23.576;2023-05-16T12:25:22;19.10;;;6.90;;
61356;SDS011;47227;46.752;23.576;2023-05-16T12:28:06;16.30;;;7.20;;
61356;SDS011;47227;46.752;23.576;2023-05-16T12:31:17;16.60;;;6.60;;
61356;SDS011;47227;46.752;23.576;2023-05-16T12:35:09;20.80;;;6.70;;
61356;SDS011;47227;46.752;23.576;2023-05-16T12:37:51;20.20;;;7.00;;
61356;SDS011;47227;46.752;23.576;2023-05-16T12:40:56;21.40;;;7.10;;
61356;SDS011;47227;46.752;23.576;2023-05-16T12:55:22;26.20;;;6.90;;
61356;SDS011;47227;46.752;23.576;2023-05-16T13:07:53;15.00;;;5.50;;
61356;SDS011;47227;46.752;23.576;2023-05-16T13:15:50;13.60;;;4.60;;
61356;SDS011;47227;46.752;23.576;2023-05-16T13:26:52;11.10;;;4.40;;
61356;SDS011;47227;46.752;23.576;2023-05-16T13:30:01;10.50;;;3.90;;
61356;SDS011;47227;46.752;23.576;2023-05-16T13:40:17;14.70;;;4.20;;
61356;SDS011;47227;46.752;23.576;2023-05-16T13:44:14;13.00;;;3.80;;
61356;SDS011;47227;46.752;23.576;2023-05-16T14:14:26;11.80;;;4.10;;
61356;SDS011;47227;46.752;23.576;2023-05-16T14:17:37;13.30;;;4.30;;
61356;SDS011;47227;46.752;23.576;2023-05-16T14:21:11;15.50;;;4.70;;
61356;SDS011;47227;46.752;23.576;2023-05-16T14:24:25;15.30;;;4.20;;
61356;SDS011;47227;46.752;23.576;2023-05-16T14:27:57;14.70;;;4.10;;
61356;SDS011;47227;46.752;23.576;2023-05-16T14:40:16;8.30;;;4.20;;
61356;SDS011;47227;46.752;23.576;2023-05-16T14:43:56;10.70;;;4.50;;
61356;SDS011;47227;46.752;23.576;2023-05-16T14:47:41;11.50;;;4.20;;
61356;SDS011;47227;46.752;23.576;2023-05-16T14:50:51;10.90;;;4.00;;
61356;SDS011;47227;46.752;23.576;2023-05-16T14:54:51;10.80;;;4.00;;
61356;SDS011;47227;46.752;23.576;2023-05-16T14:58:07;17.40;;;4.30;;
61356;SDS011;47227;46.752;23.576;2023-05-16T15:01:47;10.70;;;4.20;;
61356;SDS011;47227;46.752;23.576;2023-05-16T15:05:43;15.10;;;4.90;;
61356;SDS011;47227;46.752;23.576;2023-05-16T15:13:54;16.90;;;4.60;;
61356;SDS011;47227;46.752;23.576;2023-05-16T15:17:28;17.20;;;6.10;;
61356;SDS011;47227;46.752;23.576;2023-05-16T15:21:04;16.20;;;5.20;;
61356;SDS011;47227;46.752;23.576;2023-05-16T15:24:37;15.20;;;5.00;;
61356;SDS011;47227;46.752;23.576;2023-05-16T15:28:07;10.00;;;4.30;;
61356;SDS011;47227;46.752;23.576;2023-05-16T15:31:53;13.10;;;4.20;;
61356;SDS011;47227;46.752;23.576;2023-05-16T15:35:25;15.20;;;4.70;;
61356;SDS011;47227;46.752;23.576;2023-05-16T15:39:23;14.10;;;5.70;;
61356;SDS011;47227;46.752;23.576;2023-05-16T15:42:50;10.10;;;5.00;;
61356;SDS011;47227;46.752;23.576;2023-05-16T15:46:40;18.20;;;5.60;;
61356;SDS011;47227;46.752;23.576;2023-05-16T15:50:32;18.60;;;6.00;;
61356;SDS011;47227;46.752;23.576;2023-05-16T15:54:07;17.80;;;6.10;;
61356;SDS011;47227;46.752;23.576;2023-05-16T15:57:46;18.80;;;6.10;;
61356;SDS011;47227;46.752;23.576;2023-05-16T16:05:30;13.20;;;5.40;;
61356;SDS011;47227;46.752;23.576;2023-05-16T16:09:18;18.10;;;5.90;;
61356;SDS011;47227;46.752;23.576;2023-05-16T16:13:02;14.00;;;6.10;;
61356;SDS011;47227;46.752;23.576;2023-05-16T16:16:28;9.50;;;4.90;;
61356;SDS011;47227;46.752;23.576;2023-05-16T16:20:21;17.80;;;6.30;;
61356;SDS011;47227;46.752;23.576;2023-05-16T16:23:50;17.90;;;5.00;;
61356;SDS011;47227;46.752;23.576;2023-05-16T16:27:47;10.20;;;5.30;;
61356;SDS011;47227;46.752;23.576;2023-05-16T16:31:32;9.60;;;4.90;;
61356;SDS011;47227;46.752;23.576;2023-05-16T16:34:55;13.90;;;5.40;;
61356;SDS011;47227;46.752;23.576;2023-05-16T16:38:42;12.70;;;5.60;;
61356;SDS011;47227;46.752;23.576;2023-05-16T16:42:31;16.80;;;5.90;;
61356;SDS011;47227;46.752;23.576;2023-05-16T16:46:24;9.50;;;5.30;;
61356;SDS011;47227;46.752;23.576;2023-05-16T16:49:58;10.10;;;5.20;;
61356;SDS011;47227;46.752;23.576;2023-05-16T16:52:35;13.30;;;5.60;;
61356;SDS011;47227;46.752;23.576;2023-05-16T16:55:11;11.80;;;5.50;;
61356;SDS011;47227;46.752;23.576;2023-05-16T16:57:54;16.30;;;7.20;;
61356;SDS011;47227;46.752;23.576;2023-05-16T17:00:26;13.80;;;6.60;;
61356;SDS011;47227;46.752;23.576;2023-05-16T17:02:54;17.70;;;5.80;;
61356;SDS011;47227;46.752;23.576;2023-05-16T17:06:03;11.90;;;5.70;;
61356;SDS011;47227;46.752;23.576;2023-05-16T17:08:32;16.00;;;6.20;;
61356;SDS011;47227;46.752;23.576;2023-05-16T17:11:01;10.00;;;5.60;;
61356;SDS011;47227;46.752;23.576;2023-05-16T17:13:32;11.10;;;5.70;;
61356;SDS011;47227;46.752;23.576;2023-05-16T17:16:05;13.70;;;6.20;;
61356;SDS011;47227;46.752;23.576;2023-05-16T17:18:40;17.70;;;7.40;;
61356;SDS011;47227;46.752;23.576;2023-05-16T17:21:29;20.60;;;7.00;;
61356;SDS011;47227;46.752;23.576;2023-05-16T17:24:00;13.60;;;6.70;;
61356;SDS011;47227;46.752;23.576;2023-05-16T17:26:30;18.20;;;8.10;;
61356;SDS011;47227;46.752;23.576;2023-05-16T17:29:39;30.30;;;14.50;;
61356;SDS011;47227;46.752;23.576;2023-05-16T17:32:09;24.30;;;9.30;;
61356;SDS011;47227;46.752;23.576;2023-05-16T17:35:44;16.90;;;5.10;;
61356;SDS011;47227;46.752;23.576;2023-05-16T17:39:09;9.70;;;3.80;;
61356;SDS011;47227;46.752;23.576;2023-05-16T17:42:31;14.30;;;3.40;;
61356;SDS011;47227;46.752;23.576;2023-05-16T17:45:00;14.30;;;3.60;;
61356;SDS011;47227;46.752;23.576;2023-05-16T17:47:30;14.70;;;3.50;;
61356;SDS011;47227;46.752;23.576;2023-05-16T17:49:58;14.20;;;2.80;;
61356;SDS011;47227;46.752;23.576;2023-05-16T17:52:26;14.80;;;3.60;;
61356;SDS011;47227;46.752;23.576;2023-05-16T17:54:54;15.80;;;5.10;;
61356;SDS011;47227;46.752;23.576;2023-05-16T17:57:22;14.40;;;4.10;;
61356;SDS011;47227;46.752;23.576;2023-05-16T17:59:50;17.30;;;5.20;;
61356;SDS011;47227;46.752;23.576;2023-05-16T18:02:18;14.80;;;6.00;;
61356;SDS011;47227;46.752;23.576;2023-05-16T18:04:46;18.30;;;6.70;;
61356;SDS011;47227;46.752;23.576;2023-05-16T18:07:14;15.60;;;6.50;;
61356;SDS011;47227;46.752;23.576;2023-05-16T18:09:43;14.40;;;7.40;;
61356;SDS011;47227;46.752;23.576;2023-05-16T18:12:11;13.80;;;6.70;;
61356;SDS011;47227;46.752;23.576;2023-05-16T18:14:39;15.50;;;6.60;;
61356;SDS011;47227;46.752;23.576;2023-05-16T18:17:11;19.00;;;5.80;;
61356;SDS011;47227;46.752;23.576;2023-05-16T18:19:39;18.80;;;5.10;;
61356;SDS011;47227;46.752;23.576;2023-05-16T18:22:10;17.00;;;4.40;;
61356;SDS011;47227;46.752;23.576;2023-05-16T18:24:39;12.60;;;3.30;;
61356;SDS011;47227;46.752;23.576;2023-05-16T18:42:15;12.50;;;3.60;;
61356;SDS011;47227;46.752;23.576;2023-05-16T19:16:01;6.30;;;3.00;;
61356;SDS011;47227;46.752;23.576;2023-05-16T19:19:10;14.20;;;3.30;;
61356;SDS011;47227;46.752;23.576;2023-05-16T19:32:43;14.30;;;3.70;;
61356;SDS011;47227;46.752;23.576;2023-05-16T19:47:58;11.50;;;3.10;;
61356;SDS011;47227;46.752;23.576;2023-05-16T19:52:45;12.70;;;3.10;;
61356;SDS011;47227;46.752;23.576;2023-05-16T20:01:04;10.50;;;3.00;;
61356;SDS011;47227;46.752;23.576;2023-05-16T20:21:05;10.30;;;3.00;;
61356;SDS011;47227;46.752;23.576;2023-05-16T20:31:19;9.60;;;3.10;;
61356;SDS011;47227;46.752;23.576;2023-05-16T20:35:11;12.00;;;2.90;;
61356;SDS011;47227;46.752;23.576;2023-05-16T20:38:56;10.80;;;3.20;;
61356;SDS011;47227;46.752;23.576;2023-05-16T20:43:07;24.70;;;3.30;;
61356;SDS011;47227;46.752;23.576;2023-05-16T20:54:25;16.00;;;4.30;;
61356;SDS011;47227;46.752;23.576;2023-05-16T21:05:18;13.40;;;4.20;;
61356;SDS011;47227;46.752;23.576;2023-05-16T21:17:39;12.60;;;4.00;;
61356;SDS011;47227;46.752;23.576;2023-05-16T21:28:29;15.80;;;4.90;;
61356;SDS011;47227;46.752;23.576;2023-05-16T21:52:47;16.30;;;3.40;;
61356;SDS011;47227;46.752;23.576;2023-05-16T21:57:05;12.20;;;3.70;;
61356;SDS011;47227;46.752;23.576;2023-05-16T22:04:13;10.50;;;2.90;;
61356;SDS011;47227;46.752;23.576;2023-05-16T22:16:01;6.60;;;3.20;;
61356;SDS011;47227;46.752;23.576;2023-05-16T22:19:34;16.60;;;4.00;;
61356;SDS011;47227;46.752;23.576;2023-05-16T22:23:13;14.40;;;4.30;;
61356;SDS011;47227;46.752;23.576;2023-05-16T22:27:11;12.40;;;4.10;;
61356;SDS011;47227;46.752;23.576;2023-05-16T23:56:35;13.00;;;4.90;;
